Abernathy, Texas
Current Conditions -  °F | °C
As of 8:53 AM on Friday 24 Oct 2014 (Local Time) from KLBB Reporting Station
Clear Clear  
Wind Chill: 13°   Ceiling: Unl
Heat Index: 13°   Visibility: 7mi
Dew Point: 12°   Wind: 3mph
Humidity: 93%   Direction: 240°WSW
Pressure: 30.16"   Gusts: NA
Location:  33.83°N, 101.84°W
Report Text: KLBB 241353Z 24003KT 7SM CLR 13/12 A3016 RMK AO2 SLP185 T01330122
Loading
Personal Weather Stations






























Interactive Weather Map
Tropical Storm Tracking
New forecast layout! Learn more

10-Day Weather Forecast

Advertisements
Track Severe Weather on mobile